Aviation Digital Data Service (ADDS)

Output produced by METARs form (2150 UTC 19 February 2018)
found at http://www.aviationweather.gov/adds/metars/
 
RKSG 192056Z 00000KT 2 1/2SM BR BKN008 M03/M03 A3021 RMK AO2A SLP234 T10291029 55006 PWINO $
TAF RKSG 192000Z 1920/2102 VRB06KT 3200 BR BKN010 600106 QNH3019INS 
     TEMPO 1922/2000 0800 FG 
     BECMG 2001/2002 34009KT 9999 NSW SCT060 SCT180 QNH3013INS 
     BECMG 2008/2009 VRB06KT 9999 SCT150 QNH3020INS TX08/2004Z TNM07/2019Z
       
RKTU 192100Z 25002KT 6000 NSC M06/M08 Q1023 NOSIG
TAF AMD RKTU 192020Z 1920/2024 06006KT 4800 BR NSC TNM08/1921Z TX07/2006Z 
     BECMG 2002/2003 CAVOK
       
RKTN 192100Z 07002KT CAVOK M03/M12 Q1021 NOSIG
TAF RKTN 191700Z 1918/2024 30006KT CAVOK TNM01/1921Z TX12/2006Z
       
RKPK 192100Z 02006KT CAVOK M01/M06 Q1020 NOSIG
TAF RKPK 191700Z 1918/2024 33006KT CAVOK TN02/1921Z TX12/2006Z 
     BECMG 2004/2005 21008KT 
     BECMG 2010/2011 33006KT
       
RKSS 192100Z 35004KT 2000 0650SE PRFG NSC M04/M06 Q1023 NOSIG
TAF RKSS 191700Z 1918/2024 29005KT 2500 BR FEW030 BKN150 TNM06/1922Z TX07/2006Z TNM06/2022Z 
     BECMG 1922/1923 3500 
     BECMG 2000/2001 32007KT 8000 NSW
       
RKSI 192130Z 28005KT 3500 BR FEW030 M02/M03 Q1024 NOSIG
TAF RKSI 191700Z 1918/2024 34006KT 4200 BR FEW030 BKN180 TNM02/1922Z TX04/2005Z TNM04/2021Z 
     BECMG 1921/1922 8000 NSW 
     BECMG 2003/2004 28010KT 
     BECMG 2009/2010 34008KT
       
RKPC 192100Z 17004KT 9000 SCT030 BKN110 05/M03 Q1021 NOSIG
TAF RKPC 191700Z 1918/2024 17005KT 7000 SCT030 BKN150 TN03/1921Z TX11/2005Z TN02/2021Z 
     BECMG 2000/2001 01008KT
       
RKJK 192056Z AUTO 08003KT 4SM BR CLR M02/M02 A3023 RMK AO2 SLP242 T10221023 53003
TAF RKJK 191500Z 1915/2021 33006KT 8000 BR FEW140 QNH3018INS 
     BECMG 1916/1917 VRB06KT 6000 BR FEW200 QNH3021INS 
     BECMG 2002/2003 36009KT 9999 NSW SCT140 QNH3024INS WND 35010G15KT AFT 2005 TX06/2004Z TNM02/1922Z
       
RKSO 192055Z 10003KT 3SM BR OVC003 M03/M05 A3021 RMK AO2A SLP234 55006 $
TAF AMD RKSO 192026Z 1920/2101 VRB06KT 4800 BR BKN003 600033 QNH3018INS 
     TEMPO 1921/2002 SCT003 
     BECMG 2002/2003 34009KT 9999 NSW SCT060 SCT180 QNH3015INS 
     BECMG 2008/2009 VRB06KT 9999 SCT150 QNH3020INS TX08/2004Z TNM07/2019Z
       
RKSM 192100Z 22002KT 4800 BR FEW200 M05/M07 A3022
TAF RKSM 191700Z 1918/2024 30006KT 8000 BR SCT200 TNM05/1921Z TX07/2006Z
       
RKNY 192100Z 28006KT CAVOK 02/M13 Q1020 NOSIG
TAF RKNY 191700Z 1918/2024 25009KT CAVOK TN02/1921Z TX07/2006Z TNM03/2021Z 
     BECMG 2002/2003 27015G25KT 
     BECMG 2008/2009 25007KT